sensor_id;sensor_type;location;lat;lon;timestamp;temperature;humidity
33988;DHT22;37428;53.580;-1.666;2024-03-06T00:01:26;5.20;99.90
33988;DHT22;37428;53.580;-1.666;2024-03-06T00:04:28;5.20;99.90
33988;DHT22;37428;53.580;-1.666;2024-03-06T00:07:30;5.20;99.90
33988;DHT22;37428;53.580;-1.666;2024-03-06T00:10:32;5.20;99.90
33988;DHT22;37428;53.580;-1.666;2024-03-06T00:13:34;5.20;99.90
33988;DHT22;37428;53.580;-1.666;2024-03-06T00:16:38;5.20;99.90
33988;DHT22;37428;53.580;-1.666;2024-03-06T00:19:40;5.20;99.90
33988;DHT22;37428;53.580;-1.666;2024-03-06T00:22:43;5.20;99.90
33988;DHT22;37428;53.580;-1.666;2024-03-06T00:25:46;5.30;99.90
33988;DHT22;37428;53.580;-1.666;2024-03-06T00:28:48;5.30;99.90
33988;DHT22;37428;53.580;-1.666;2024-03-06T00:31:51;5.30;99.90
33988;DHT22;37428;53.580;-1.666;2024-03-06T00:34:54;5.20;99.50
33988;DHT22;37428;53.580;-1.666;2024-03-06T00:37:56;5.10;99.30
33988;DHT22;37428;53.580;-1.666;2024-03-06T00:40:58;5.00;99.70
33988;DHT22;37428;53.580;-1.666;2024-03-06T00:44:00;5.00;99.70
33988;DHT22;37428;53.580;-1.666;2024-03-06T00:47:04;4.90;99.70
33988;DHT22;37428;53.580;-1.666;2024-03-06T00:50:06;4.90;99.40
33988;DHT22;37428;53.580;-1.666;2024-03-06T00:53:09;4.80;99.90
33988;DHT22;37428;53.580;-1.666;2024-03-06T00:56:11;4.80;99.90
33988;DHT22;37428;53.580;-1.666;2024-03-06T00:59:13;4.90;99.90
33988;DHT22;37428;53.580;-1.666;2024-03-06T01:02:16;4.90;99.90
33988;DHT22;37428;53.580;-1.666;2024-03-06T01:05:18;5.00;99.90
33988;DHT22;37428;53.580;-1.666;2024-03-06T01:08:21;5.00;99.90
33988;DHT22;37428;53.580;-1.666;2024-03-06T01:11:25;5.00;99.90
33988;DHT22;37428;53.580;-1.666;2024-03-06T01:14:27;5.00;99.90
33988;DHT22;37428;53.580;-1.666;2024-03-06T01:17:31;5.00;99.90
33988;DHT22;37428;53.580;-1.666;2024-03-06T01:20:33;5.00;99.90
33988;DHT22;37428;53.580;-1.666;2024-03-06T01:23:35;5.00;99.90
33988;DHT22;37428;53.580;-1.666;2024-03-06T01:26:37;4.90;99.90
33988;DHT22;37428;53.580;-1.666;2024-03-06T01:29:40;4.90;99.90
33988;DHT22;37428;53.580;-1.666;2024-03-06T01:32:44;4.90;99.90
33988;DHT22;37428;53.580;-1.666;2024-03-06T01:35:46;4.90;99.90
33988;DHT22;37428;53.580;-1.666;2024-03-06T01:38:48;4.90;99.90
33988;DHT22;37428;53.580;-1.666;2024-03-06T01:41:51;4.90;99.90
33988;DHT22;37428;53.580;-1.666;2024-03-06T01:44:53;4.90;99.90
33988;DHT22;37428;53.580;-1.666;2024-03-06T01:47:56;4.80;99.90
33988;DHT22;37428;53.580;-1.666;2024-03-06T01:51:01;4.80;99.90
33988;DHT22;37428;53.580;-1.666;2024-03-06T01:54:05;4.80;99.90
33988;DHT22;37428;53.580;-1.666;2024-03-06T01:57:07;4.80;99.90
33988;DHT22;37428;53.580;-1.666;2024-03-06T02:00:11;4.80;99.90
33988;DHT22;37428;53.580;-1.666;2024-03-06T02:03:17;4.70;99.90
33988;DHT22;37428;53.580;-1.666;2024-03-06T02:06:20;4.80;99.90
33988;DHT22;37428;53.580;-1.666;2024-03-06T02:09:23;4.70;99.90
33988;DHT22;37428;53.580;-1.666;2024-03-06T02:12:25;4.70;99.90
33988;DHT22;37428;53.580;-1.666;2024-03-06T02:15:28;4.70;99.90
33988;DHT22;37428;53.580;-1.666;2024-03-06T02:18:32;4.60;99.90
33988;DHT22;37428;53.580;-1.666;2024-03-06T02:21:35;4.50;99.90
33988;DHT22;37428;53.580;-1.666;2024-03-06T02:24:38;4.40;99.90
33988;DHT22;37428;53.580;-1.666;2024-03-06T02:27:40;4.40;99.90
33988;DHT22;37428;53.580;-1.666;2024-03-06T02:30:42;4.40;99.90
33988;DHT22;37428;53.580;-1.666;2024-03-06T02:33:45;4.20;99.90
33988;DHT22;37428;53.580;-1.666;2024-03-06T02:36:49;4.20;99.90
33988;DHT22;37428;53.580;-1.666;2024-03-06T02:39:52;4.20;99.90
33988;DHT22;37428;53.580;-1.666;2024-03-06T02:42:54;4.20;99.90
33988;DHT22;37428;53.580;-1.666;2024-03-06T02:45:56;4.20;99.90
33988;DHT22;37428;53.580;-1.666;2024-03-06T02:48:58;4.20;99.90
33988;DHT22;37428;53.580;-1.666;2024-03-06T02:52:02;4.30;99.90
33988;DHT22;37428;53.580;-1.666;2024-03-06T02:55:05;4.30;99.90
33988;DHT22;37428;53.580;-1.666;2024-03-06T02:58:08;4.30;99.90
33988;DHT22;37428;53.580;-1.666;2024-03-06T03:01:10;4.30;99.90
33988;DHT22;37428;53.580;-1.666;2024-03-06T03:04:12;4.30;99.90
33988;DHT22;37428;53.580;-1.666;2024-03-06T03:07:16;4.40;99.90
33988;DHT22;37428;53.580;-1.666;2024-03-06T03:10:18;4.30;99.90
33988;DHT22;37428;53.580;-1.666;2024-03-06T03:13:20;4.30;99.90
33988;DHT22;37428;53.580;-1.666;2024-03-06T03:16:22;4.30;99.90
33988;DHT22;37428;53.580;-1.666;2024-03-06T03:19:24;4.30;99.90
33988;DHT22;37428;53.580;-1.666;2024-03-06T03:22:27;4.30;99.90
33988;DHT22;37428;53.580;-1.666;2024-03-06T03:25:29;4.30;99.90
33988;DHT22;37428;53.580;-1.666;2024-03-06T03:28:32;4.30;99.90
33988;DHT22;37428;53.580;-1.666;2024-03-06T03:31:34;4.30;99.90
33988;DHT22;37428;53.580;-1.666;2024-03-06T03:34:36;4.40;99.90
33988;DHT22;37428;53.580;-1.666;2024-03-06T03:37:42;4.40;99.90
33988;DHT22;37428;53.580;-1.666;2024-03-06T03:40:44;4.40;99.90
33988;DHT22;37428;53.580;-1.666;2024-03-06T03:43:46;4.50;99.90
33988;DHT22;37428;53.580;-1.666;2024-03-06T03:46:48;4.50;99.90
33988;DHT22;37428;53.580;-1.666;2024-03-06T03:49:51;4.50;99.90
33988;DHT22;37428;53.580;-1.666;2024-03-06T03:52:55;4.60;99.90
33988;DHT22;37428;53.580;-1.666;2024-03-06T03:55:58;4.60;99.90
33988;DHT22;37428;53.580;-1.666;2024-03-06T03:59:01;4.70;99.90
33988;DHT22;37428;53.580;-1.666;2024-03-06T04:02:03;4.70;99.90
33988;DHT22;37428;53.580;-1.666;2024-03-06T04:05:06;4.80;99.90
33988;DHT22;37428;53.580;-1.666;2024-03-06T04:08:09;4.80;99.90
33988;DHT22;37428;53.580;-1.666;2024-03-06T04:11:11;4.80;99.90
33988;DHT22;37428;53.580;-1.666;2024-03-06T04:14:13;4.80;99.90
33988;DHT22;37428;53.580;-1.666;2024-03-06T04:17:15;4.90;99.90
33988;DHT22;37428;53.580;-1.666;2024-03-06T04:20:18;4.90;99.90
33988;DHT22;37428;53.580;-1.666;2024-03-06T04:23:21;4.90;99.90
33988;DHT22;37428;53.580;-1.666;2024-03-06T04:26:23;4.90;99.90
33988;DHT22;37428;53.580;-1.666;2024-03-06T04:29:25;4.90;99.90
33988;DHT22;37428;53.580;-1.666;2024-03-06T04:32:27;5.00;99.90
33988;DHT22;37428;53.580;-1.666;2024-03-06T04:35:29;5.00;99.90
33988;DHT22;37428;53.580;-1.666;2024-03-06T04:38:33;5.00;99.90
33988;DHT22;37428;53.580;-1.666;2024-03-06T04:41:35;5.00;99.90
33988;DHT22;37428;53.580;-1.666;2024-03-06T04:44:37;5.00;99.90
33988;DHT22;37428;53.580;-1.666;2024-03-06T04:47:39;5.00;99.90
33988;DHT22;37428;53.580;-1.666;2024-03-06T04:50:41;5.00;99.90
33988;DHT22;37428;53.580;-1.666;2024-03-06T04:53:44;5.10;99.90
33988;DHT22;37428;53.580;-1.666;2024-03-06T04:56:46;5.10;99.90
33988;DHT22;37428;53.580;-1.666;2024-03-06T04:59:48;5.10;99.90
33988;DHT22;37428;53.580;-1.666;2024-03-06T05:02:50;5.10;99.90
33988;DHT22;37428;53.580;-1.666;2024-03-06T05:05:52;5.10;99.90
33988;DHT22;37428;53.580;-1.666;2024-03-06T05:08:56;5.10;99.90
33988;DHT22;37428;53.580;-1.666;2024-03-06T05:11:58;5.10;99.90
33988;DHT22;37428;53.580;-1.666;2024-03-06T05:15:00;5.10;99.90
33988;DHT22;37428;53.580;-1.666;2024-03-06T05:18:03;5.10;99.90
33988;DHT22;37428;53.580;-1.666;2024-03-06T05:21:05;5.10;99.90
33988;DHT22;37428;53.580;-1.666;2024-03-06T05:24:09;5.10;99.90
33988;DHT22;37428;53.580;-1.666;2024-03-06T05:27:11;5.10;99.90
33988;DHT22;37428;53.580;-1.666;2024-03-06T05:30:17;5.10;99.90
33988;DHT22;37428;53.580;-1.666;2024-03-06T05:33:19;5.10;99.90
33988;DHT22;37428;53.580;-1.666;2024-03-06T05:36:22;5.10;99.90
33988;DHT22;37428;53.580;-1.666;2024-03-06T05:39:25;5.10;99.90
33988;DHT22;37428;53.580;-1.666;2024-03-06T05:42:27;5.10;99.90
33988;DHT22;37428;53.580;-1.666;2024-03-06T05:45:31;5.10;99.90
33988;DHT22;37428;53.580;-1.666;2024-03-06T05:48:33;5.10;99.90
33988;DHT22;37428;53.580;-1.666;2024-03-06T05:51:35;5.10;99.90
33988;DHT22;37428;53.580;-1.666;2024-03-06T05:54:40;5.10;99.90
33988;DHT22;37428;53.580;-1.666;2024-03-06T05:57:42;5.10;99.90
33988;DHT22;37428;53.580;-1.666;2024-03-06T06:00:46;5.10;99.90
33988;DHT22;37428;53.580;-1.666;2024-03-06T06:03:48;5.10;99.90
33988;DHT22;37428;53.580;-1.666;2024-03-06T06:06:51;5.10;99.90
33988;DHT22;37428;53.580;-1.666;2024-03-06T06:09:54;5.10;99.90
33988;DHT22;37428;53.580;-1.666;2024-03-06T06:12:56;5.20;99.90
33988;DHT22;37428;53.580;-1.666;2024-03-06T06:15:58;5.20;99.90
33988;DHT22;37428;53.580;-1.666;2024-03-06T06:19:03;5.20;99.90
33988;DHT22;37428;53.580;-1.666;2024-03-06T06:22:06;5.20;99.90
33988;DHT22;37428;53.580;-1.666;2024-03-06T06:25:09;5.20;99.90
33988;DHT22;37428;53.580;-1.666;2024-03-06T06:28:11;5.20;99.90
33988;DHT22;37428;53.580;-1.666;2024-03-06T06:31:13;5.20;99.90
33988;DHT22;37428;53.580;-1.666;2024-03-06T06:34:15;5.30;99.90
33988;DHT22;37428;53.580;-1.666;2024-03-06T06:37:18;5.20;99.90
33988;DHT22;37428;53.580;-1.666;2024-03-06T06:40:21;5.20;99.90
33988;DHT22;37428;53.580;-1.666;2024-03-06T06:43:24;5.20;99.90
33988;DHT22;37428;53.580;-1.666;2024-03-06T06:46:27;5.20;99.90
33988;DHT22;37428;53.580;-1.666;2024-03-06T06:49:29;5.20;99.90
33988;DHT22;37428;53.580;-1.666;2024-03-06T06:52:31;5.20;99.90
33988;DHT22;37428;53.580;-1.666;2024-03-06T06:55:35;5.20;99.90
33988;DHT22;37428;53.580;-1.666;2024-03-06T06:58:38;5.20;99.90
33988;DHT22;37428;53.580;-1.666;2024-03-06T07:01:43;5.20;99.90
33988;DHT22;37428;53.580;-1.666;2024-03-06T07:04:45;5.20;99.90
33988;DHT22;37428;53.580;-1.666;2024-03-06T07:07:47;5.20;99.90
33988;DHT22;37428;53.580;-1.666;2024-03-06T07:10:51;5.20;99.90
33988;DHT22;37428;53.580;-1.666;2024-03-06T07:13:54;5.20;99.90
33988;DHT22;37428;53.580;-1.666;2024-03-06T07:16:57;5.20;99.90
33988;DHT22;37428;53.580;-1.666;2024-03-06T07:19:59;5.20;99.90
33988;DHT22;37428;53.580;-1.666;2024-03-06T07:23:01;5.20;99.90
33988;DHT22;37428;53.580;-1.666;2024-03-06T07:26:04;5.20;99.90
33988;DHT22;37428;53.580;-1.666;2024-03-06T07:29:06;5.20;99.90
33988;DHT22;37428;53.580;-1.666;2024-03-06T07:32:15;5.20;99.90
33988;DHT22;37428;53.580;-1.666;2024-03-06T07:35:17;5.20;99.90
33988;DHT22;37428;53.580;-1.666;2024-03-06T07:38:19;5.30;99.90
33988;DHT22;37428;53.580;-1.666;2024-03-06T07:41:22;5.30;99.90
33988;DHT22;37428;53.580;-1.666;2024-03-06T07:44:25;5.40;99.90
33988;DHT22;37428;53.580;-1.666;2024-03-06T07:47:27;5.50;99.90
33988;DHT22;37428;53.580;-1.666;2024-03-06T07:50:29;5.60;99.90
33988;DHT22;37428;53.580;-1.666;2024-03-06T07:53:31;5.70;99.90
33988;DHT22;37428;53.580;-1.666;2024-03-06T07:56:34;5.70;99.90
33988;DHT22;37428;53.580;-1.666;2024-03-06T07:59:36;5.70;99.90
33988;DHT22;37428;53.580;-1.666;2024-03-06T08:02:38;5.70;99.90
33988;DHT22;37428;53.580;-1.666;2024-03-06T08:05:43;5.80;99.90
33988;DHT22;37428;53.580;-1.666;2024-03-06T08:08:45;5.80;99.90
33988;DHT22;37428;53.580;-1.666;2024-03-06T08:11:49;5.90;99.90
33988;DHT22;37428;53.580;-1.666;2024-03-06T08:14:51;5.90;99.90
33988;DHT22;37428;53.580;-1.666;2024-03-06T08:17:55;5.90;99.90
33988;DHT22;37428;53.580;-1.666;2024-03-06T08:20:57;6.00;99.90
33988;DHT22;37428;53.580;-1.666;2024-03-06T08:23:59;6.00;99.90
33988;DHT22;37428;53.580;-1.666;2024-03-06T08:27:02;6.00;99.90
33988;DHT22;37428;53.580;-1.666;2024-03-06T08:30:06;6.00;99.90
33988;DHT22;37428;53.580;-1.666;2024-03-06T08:33:08;6.00;99.90
33988;DHT22;37428;53.580;-1.666;2024-03-06T08:36:10;6.00;99.90
33988;DHT22;37428;53.580;-1.666;2024-03-06T08:39:14;6.10;99.90
33988;DHT22;37428;53.580;-1.666;2024-03-06T08:42:18;6.10;99.90
33988;DHT22;37428;53.580;-1.666;2024-03-06T08:45:20;6.10;99.90
33988;DHT22;37428;53.580;-1.666;2024-03-06T08:48:23;6.10;99.90
33988;DHT22;37428;53.580;-1.666;2024-03-06T08:51:26;6.10;99.90
33988;DHT22;37428;53.580;-1.666;2024-03-06T08:54:28;6.20;99.90
33988;DHT22;37428;53.580;-1.666;2024-03-06T08:57:33;6.20;99.90
33988;DHT22;37428;53.580;-1.666;2024-03-06T09:00:35;6.20;99.90
33988;DHT22;37428;53.580;-1.666;2024-03-06T09:03:38;6.10;99.90
33988;DHT22;37428;53.580;-1.666;2024-03-06T09:06:40;6.10;99.90
33988;DHT22;37428;53.580;-1.666;2024-03-06T09:09:42;6.30;99.90
33988;DHT22;37428;53.580;-1.666;2024-03-06T09:12:45;6.20;99.90
33988;DHT22;37428;53.580;-1.666;2024-03-06T09:15:47;6.10;99.90
33988;DHT22;37428;53.580;-1.666;2024-03-06T09:18:50;6.00;99.90
33988;DHT22;37428;53.580;-1.666;2024-03-06T09:21:52;6.00;99.90
33988;DHT22;37428;53.580;-1.666;2024-03-06T09:24:54;6.10;99.90
33988;DHT22;37428;53.580;-1.666;2024-03-06T09:27:58;6.30;99.90
33988;DHT22;37428;53.580;-1.666;2024-03-06T09:31:05;6.40;99.90
33988;DHT22;37428;53.580;-1.666;2024-03-06T09:34:07;6.40;99.90
33988;DHT22;37428;53.580;-1.666;2024-03-06T09:37:12;6.40;99.90
33988;DHT22;37428;53.580;-1.666;2024-03-06T09:40:20;6.30;99.90
33988;DHT22;37428;53.580;-1.666;2024-03-06T09:43:24;6.30;99.90
33988;DHT22;37428;53.580;-1.666;2024-03-06T09:46:26;6.40;99.90
33988;DHT22;37428;53.580;-1.666;2024-03-06T09:49:29;6.70;99.90
33988;DHT22;37428;53.580;-1.666;2024-03-06T09:52:32;7.20;99.90
33988;DHT22;37428;53.580;-1.666;2024-03-06T09:55:36;7.90;99.90
33988;DHT22;37428;53.580;-1.666;2024-03-06T09:58:39;8.30;99.60
33988;DHT22;37428;53.580;-1.666;2024-03-06T10:01:48;8.70;96.60
33988;DHT22;37428;53.580;-1.666;2024-03-06T10:04:51;8.40;93.70
33988;DHT22;37428;53.580;-1.666;2024-03-06T10:07:53;8.30;95.30
33988;DHT22;37428;53.580;-1.666;2024-03-06T10:10:56;8.10;95.10
33988;DHT22;37428;53.580;-1.666;2024-03-06T10:13:59;7.80;93.30
33988;DHT22;37428;53.580;-1.666;2024-03-06T10:17:01;7.50;95.50
33988;DHT22;37428;53.580;-1.666;2024-03-06T10:20:17;7.20;95.00
33988;DHT22;37428;53.580;-1.666;2024-03-06T10:23:20;7.20;96.50
33988;DHT22;37428;53.580;-1.666;2024-03-06T10:26:22;7.30;96.60
33988;DHT22;37428;53.580;-1.666;2024-03-06T10:29:29;7.30;97.00
33988;DHT22;37428;53.580;-1.666;2024-03-06T10:32:31;7.30;97.40
33988;DHT22;37428;53.580;-1.666;2024-03-06T10:35:33;7.40;98.20
33988;DHT22;37428;53.580;-1.666;2024-03-06T10:38:42;7.30;97.20
33988;DHT22;37428;53.580;-1.666;2024-03-06T10:41:46;7.50;98.20
33988;DHT22;37428;53.580;-1.666;2024-03-06T10:44:52;7.60;96.80
33988;DHT22;37428;53.580;-1.666;2024-03-06T10:47:57;7.50;95.50
33988;DHT22;37428;53.580;-1.666;2024-03-06T10:50:59;7.70;96.00
33988;DHT22;37428;53.580;-1.666;2024-03-06T10:54:03;8.20;94.90
33988;DHT22;37428;53.580;-1.666;2024-03-06T10:57:06;8.50;92.50
33988;DHT22;37428;53.580;-1.666;2024-03-06T11:00:10;8.80;92.30
33988;DHT22;37428;53.580;-1.666;2024-03-06T11:03:18;8.70;89.70
33988;DHT22;37428;53.580;-1.666;2024-03-06T11:06:21;8.80;88.90
33988;DHT22;37428;53.580;-1.666;2024-03-06T11:09:23;8.70;88.80
33988;DHT22;37428;53.580;-1.666;2024-03-06T11:12:36;8.60;88.50
33988;DHT22;37428;53.580;-1.666;2024-03-06T11:15:40;8.40;90.80
33988;DHT22;37428;53.580;-1.666;2024-03-06T11:18:45;8.30;90.90
33988;DHT22;37428;53.580;-1.666;2024-03-06T11:21:47;8.30;91.80
33988;DHT22;37428;53.580;-1.666;2024-03-06T11:24:49;8.30;92.00
33988;DHT22;37428;53.580;-1.666;2024-03-06T11:28:04;8.30;91.30
33988;DHT22;37428;53.580;-1.666;2024-03-06T11:31:08;8.20;91.50
33988;DHT22;37428;53.580;-1.666;2024-03-06T11:34:12;8.20;92.10
33988;DHT22;37428;53.580;-1.666;2024-03-06T11:37:20;8.10;91.80
33988;DHT22;37428;53.580;-1.666;2024-03-06T11:40:23;8.10;93.30
33988;DHT22;37428;53.580;-1.666;2024-03-06T11:43:27;8.00;93.00
33988;DHT22;37428;53.580;-1.666;2024-03-06T11:46:45;7.90;94.00
33988;DHT22;37428;53.580;-1.666;2024-03-06T11:49:49;7.80;93.80
33988;DHT22;37428;53.580;-1.666;2024-03-06T11:52:51;7.70;93.80
33988;DHT22;37428;53.580;-1.666;2024-03-06T11:55:56;7.50;95.00
33988;DHT22;37428;53.580;-1.666;2024-03-06T11:58:58;7.60;96.00
33988;DHT22;37428;53.580;-1.666;2024-03-06T12:02:03;7.50;96.00
33988;DHT22;37428;53.580;-1.666;2024-03-06T12:05:06;7.60;95.60
33988;DHT22;37428;53.580;-1.666;2024-03-06T12:08:10;7.70;95.30
33988;DHT22;37428;53.580;-1.666;2024-03-06T12:11:13;7.80;94.70
33988;DHT22;37428;53.580;-1.666;2024-03-06T12:14:16;7.90;94.90
33988;DHT22;37428;53.580;-1.666;2024-03-06T12:17:20;7.80;93.60
33988;DHT22;37428;53.580;-1.666;2024-03-06T12:20:24;7.70;94.80
33988;DHT22;37428;53.580;-1.666;2024-03-06T12:23:26;7.80;94.30
33988;DHT22;37428;53.580;-1.666;2024-03-06T12:26:28;7.80;94.10
33988;DHT22;37428;53.580;-1.666;2024-03-06T12:29:32;7.90;93.70
33988;DHT22;37428;53.580;-1.666;2024-03-06T12:32:36;7.80;93.90
33988;DHT22;37428;53.580;-1.666;2024-03-06T12:35:39;7.90;93.80
33988;DHT22;37428;53.580;-1.666;2024-03-06T12:38:41;8.00;93.60
33988;DHT22;37428;53.580;-1.666;2024-03-06T12:41:43;8.10;92.80
33988;DHT22;37428;53.580;-1.666;2024-03-06T12:44:45;8.00;93.00
33988;DHT22;37428;53.580;-1.666;2024-03-06T12:47:50;8.00;92.90
33988;DHT22;37428;53.580;-1.666;2024-03-06T12:50:52;8.60;91.30
33988;DHT22;37428;53.580;-1.666;2024-03-06T12:53:55;8.80;91.30
33988;DHT22;37428;53.580;-1.666;2024-03-06T12:56:57;8.70;90.60
33988;DHT22;37428;53.580;-1.666;2024-03-06T12:59:59;8.60;91.40
33988;DHT22;37428;53.580;-1.666;2024-03-06T13:03:03;8.70;91.80
33988;DHT22;37428;53.580;-1.666;2024-03-06T13:06:05;9.30;90.10
33988;DHT22;37428;53.580;-1.666;2024-03-06T13:09:08;9.70;86.70
33988;DHT22;37428;53.580;-1.666;2024-03-06T13:12:10;9.70;86.90
33988;DHT22;37428;53.580;-1.666;2024-03-06T13:15:12;9.80;87.40
33988;DHT22;37428;53.580;-1.666;2024-03-06T13:18:16;9.80;86.00
33988;DHT22;37428;53.580;-1.666;2024-03-06T13:21:18;9.70;86.20
33988;DHT22;37428;53.580;-1.666;2024-03-06T13:24:20;9.80;87.30
33988;DHT22;37428;53.580;-1.666;2024-03-06T13:27:23;10.20;86.20
33988;DHT22;37428;53.580;-1.666;2024-03-06T13:30:46;10.20;82.70
33988;DHT22;37428;53.580;-1.666;2024-03-06T13:33:49;10.00;83.80
33988;DHT22;37428;53.580;-1.666;2024-03-06T13:36:51;10.00;85.50
33988;DHT22;37428;53.580;-1.666;2024-03-06T13:39:54;10.00;85.30
33988;DHT22;37428;53.580;-1.666;2024-03-06T13:43:01;9.80;85.50
33988;DHT22;37428;53.580;-1.666;2024-03-06T13:46:03;9.80;85.30
33988;DHT22;37428;53.580;-1.666;2024-03-06T13:49:06;9.50;85.30
33988;DHT22;37428;53.580;-1.666;2024-03-06T13:52:09;9.80;85.60
33988;DHT22;37428;53.580;-1.666;2024-03-06T13:55:13;10.10;84.30
33988;DHT22;37428;53.580;-1.666;2024-03-06T13:58:16;10.40;83.80
33988;DHT22;37428;53.580;-1.666;2024-03-06T14:01:18;10.70;82.40
33988;DHT22;37428;53.580;-1.666;2024-03-06T14:04:21;10.50;81.30
33988;DHT22;37428;53.580;-1.666;2024-03-06T14:07:23;10.50;82.40
33988;DHT22;37428;53.580;-1.666;2024-03-06T14:10:25;10.90;80.20
33988;DHT22;37428;53.580;-1.666;2024-03-06T14:13:27;11.30;79.20
33988;DHT22;37428;53.580;-1.666;2024-03-06T14:16:29;11.50;78.90
33988;DHT22;37428;53.580;-1.666;2024-03-06T14:19:33;11.60;75.40
33988;DHT22;37428;53.580;-1.666;2024-03-06T14:22:35;11.80;76.20
33988;DHT22;37428;53.580;-1.666;2024-03-06T14:25:37;12.30;75.00
33988;DHT22;37428;53.580;-1.666;2024-03-06T14:28:39;11.80;73.50
33988;DHT22;37428;53.580;-1.666;2024-03-06T14:31:41;11.20;76.70
33988;DHT22;37428;53.580;-1.666;2024-03-06T14:34:45;10.60;79.10
33988;DHT22;37428;53.580;-1.666;2024-03-06T14:37:47;10.30;80.30
33988;DHT22;37428;53.580;-1.666;2024-03-06T14:40:50;10.20;82.00
33988;DHT22;37428;53.580;-1.666;2024-03-06T14:43:52;9.90;82.30
33988;DHT22;37428;53.580;-1.666;2024-03-06T14:46:54;9.60;84.00
33988;DHT22;37428;53.580;-1.666;2024-03-06T14:49:58;9.30;85.90
33988;DHT22;37428;53.580;-1.666;2024-03-06T14:53:00;9.30;86.40
33988;DHT22;37428;53.580;-1.666;2024-03-06T14:56:03;9.20;87.20
33988;DHT22;37428;53.580;-1.666;2024-03-06T14:59:05;9.20;88.00
33988;DHT22;37428;53.580;-1.666;2024-03-06T15:02:07;9.20;88.20
33988;DHT22;37428;53.580;-1.666;2024-03-06T15:05:11;9.40;88.40
33988;DHT22;37428;53.580;-1.666;2024-03-06T15:08:13;9.60;86.20
33988;DHT22;37428;53.580;-1.666;2024-03-06T15:11:15;9.40;86.00
33988;DHT22;37428;53.580;-1.666;2024-03-06T15:14:18;9.20;87.00
33988;DHT22;37428;53.580;-1.666;2024-03-06T15:17:20;9.00;87.60
33988;DHT22;37428;53.580;-1.666;2024-03-06T15:20:24;8.80;88.00
33988;DHT22;37428;53.580;-1.666;2024-03-06T15:23:28;8.80;88.70
33988;DHT22;37428;53.580;-1.666;2024-03-06T15:26:32;8.80;89.10
33988;DHT22;37428;53.580;-1.666;2024-03-06T15:29:36;8.90;88.70
33988;DHT22;37428;53.580;-1.666;2024-03-06T15:32:38;8.90;88.60
33988;DHT22;37428;53.580;-1.666;2024-03-06T15:35:41;9.00;88.10
33988;DHT22;37428;53.580;-1.666;2024-03-06T15:38:44;9.10;86.80
33988;DHT22;37428;53.580;-1.666;2024-03-06T15:41:46;9.00;87.10
33988;DHT22;37428;53.580;-1.666;2024-03-06T15:44:48;9.10;88.00
33988;DHT22;37428;53.580;-1.666;2024-03-06T15:47:50;9.10;88.90
33988;DHT22;37428;53.580;-1.666;2024-03-06T15:50:54;9.00;89.40
33988;DHT22;37428;53.580;-1.666;2024-03-06T15:53:56;8.90;89.40
33988;DHT22;37428;53.580;-1.666;2024-03-06T15:56:58;8.70;89.90
33988;DHT22;37428;53.580;-1.666;2024-03-06T16:00:00;8.60;91.10
33988;DHT22;37428;53.580;-1.666;2024-03-06T16:03:03;8.50;91.70
33988;DHT22;37428;53.580;-1.666;2024-03-06T16:06:07;8.50;92.20
33988;DHT22;37428;53.580;-1.666;2024-03-06T16:09:10;8.40;92.50
33988;DHT22;37428;53.580;-1.666;2024-03-06T16:12:14;8.50;92.50
33988;DHT22;37428;53.580;-1.666;2024-03-06T16:15:16;8.40;92.50
33988;DHT22;37428;53.580;-1.666;2024-03-06T16:18:18;8.40;92.20
33988;DHT22;37428;53.580;-1.666;2024-03-06T16:21:22;8.50;92.30
33988;DHT22;37428;53.580;-1.666;2024-03-06T16:24:24;8.40;91.00
33988;DHT22;37428;53.580;-1.666;2024-03-06T16:27:26;8.40;91.10
33988;DHT22;37428;53.580;-1.666;2024-03-06T16:30:28;8.30;91.40
33988;DHT22;37428;53.580;-1.666;2024-03-06T16:33:31;8.30;91.10
33988;DHT22;37428;53.580;-1.666;2024-03-06T16:36:34;8.20;91.20
33988;DHT22;37428;53.580;-1.666;2024-03-06T16:39:36;8.20;92.10
33988;DHT22;37428;53.580;-1.666;2024-03-06T16:42:39;8.20;92.40
33988;DHT22;37428;53.580;-1.666;2024-03-06T16:45:41;8.10;93.00
33988;DHT22;37428;53.580;-1.666;2024-03-06T16:48:44;8.10;92.60
33988;DHT22;37428;53.580;-1.666;2024-03-06T16:51:47;8.10;92.20
33988;DHT22;37428;53.580;-1.666;2024-03-06T16:54:49;8.10;91.50
33988;DHT22;37428;53.580;-1.666;2024-03-06T16:57:51;8.10;91.90
33988;DHT22;37428;53.580;-1.666;2024-03-06T17:00:53;8.10;92.20
33988;DHT22;37428;53.580;-1.666;2024-03-06T17:03:56;8.10;92.30
33988;DHT22;37428;53.580;-1.666;2024-03-06T17:06:59;8.10;92.80
33988;DHT22;37428;53.580;-1.666;2024-03-06T17:10:10;8.20;93.40
33988;DHT22;37428;53.580;-1.666;2024-03-06T17:13:13;8.10;93.30
33988;DHT22;37428;53.580;-1.666;2024-03-06T17:16:15;8.10;93.20
33988;DHT22;37428;53.580;-1.666;2024-03-06T17:19:17;8.10;93.80
33988;DHT22;37428;53.580;-1.666;2024-03-06T17:22:21;8.10;93.70
33988;DHT22;37428;53.580;-1.666;2024-03-06T17:25:23;8.10;94.00
33988;DHT22;37428;53.580;-1.666;2024-03-06T17:28:25;8.10;94.30
33988;DHT22;37428;53.580;-1.666;2024-03-06T17:31:27;8.10;94.30
33988;DHT22;37428;53.580;-1.666;2024-03-06T17:34:30;8.10;94.40
33988;DHT22;37428;53.580;-1.666;2024-03-06T17:37:34;8.10;94.80
33988;DHT22;37428;53.580;-1.666;2024-03-06T17:40:36;8.00;94.80
33988;DHT22;37428;53.580;-1.666;2024-03-06T17:43:39;8.00;94.90
33988;DHT22;37428;53.580;-1.666;2024-03-06T17:46:41;7.90;94.80
33988;DHT22;37428;53.580;-1.666;2024-03-06T17:49:43;7.90;95.30
33988;DHT22;37428;53.580;-1.666;2024-03-06T17:52:46;7.80;95.30
33988;DHT22;37428;53.580;-1.666;2024-03-06T17:55:49;7.80;95.10
33988;DHT22;37428;53.580;-1.666;2024-03-06T17:58:51;7.80;95.40
33988;DHT22;37428;53.580;-1.666;2024-03-06T18:01:53;7.70;95.60
33988;DHT22;37428;53.580;-1.666;2024-03-06T18:04:56;7.70;95.90
33988;DHT22;37428;53.580;-1.666;2024-03-06T18:07:59;7.60;96.00
33988;DHT22;37428;53.580;-1.666;2024-03-06T18:11:01;7.60;96.70
33988;DHT22;37428;53.580;-1.666;2024-03-06T18:14:03;7.50;97.40
33988;DHT22;37428;53.580;-1.666;2024-03-06T18:17:05;7.50;98.00
33988;DHT22;37428;53.580;-1.666;2024-03-06T18:20:08;7.40;98.60
33988;DHT22;37428;53.580;-1.666;2024-03-06T18:23:12;7.30;99.10
33988;DHT22;37428;53.580;-1.666;2024-03-06T18:26:14;7.30;99.70
33988;DHT22;37428;53.580;-1.666;2024-03-06T18:29:20;7.20;99.90
33988;DHT22;37428;53.580;-1.666;2024-03-06T18:32:22;7.10;99.90
33988;DHT22;37428;53.580;-1.666;2024-03-06T18:35:24;7.10;99.90
33988;DHT22;37428;53.580;-1.666;2024-03-06T18:38:27;7.00;99.90
33988;DHT22;37428;53.580;-1.666;2024-03-06T18:41:30;7.00;99.90
33988;DHT22;37428;53.580;-1.666;2024-03-06T18:44:33;7.00;99.90
33988;DHT22;37428;53.580;-1.666;2024-03-06T18:47:35;7.00;99.90
33988;DHT22;37428;53.580;-1.666;2024-03-06T18:50:38;6.90;99.90
33988;DHT22;37428;53.580;-1.666;2024-03-06T18:53:41;6.90;99.90
33988;DHT22;37428;53.580;-1.666;2024-03-06T18:56:43;6.90;99.90
33988;DHT22;37428;53.580;-1.666;2024-03-06T18:59:48;6.80;99.90
33988;DHT22;37428;53.580;-1.666;2024-03-06T19:02:53;6.70;99.90
33988;DHT22;37428;53.580;-1.666;2024-03-06T19:05:55;6.70;99.90
33988;DHT22;37428;53.580;-1.666;2024-03-06T19:08:58;6.60;99.90
33988;DHT22;37428;53.580;-1.666;2024-03-06T19:12:01;6.50;99.90
33988;DHT22;37428;53.580;-1.666;2024-03-06T19:15:03;6.50;99.90